sensor_id;sensor_type;location;lat;lon;timestamp;P1;durP1;ratioP1;P2;durP2;ratioP2
12228;SDS011;6177;52.402;9.800;2022-10-16T00:01:13;1.43;;;0.60;;
12228;SDS011;6177;52.402;9.800;2022-10-16T00:04:08;2.70;;;0.57;;
12228;SDS011;6177;52.402;9.800;2022-10-16T00:07:04;0.53;;;0.50;;
12228;SDS011;6177;52.402;9.800;2022-10-16T00:09:52;1.27;;;0.37;;
12228;SDS011;6177;52.402;9.800;2022-10-16T00:12:42;0.40;;;0.37;;
12228;SDS011;6177;52.402;9.800;2022-10-16T00:15:27;0.33;;;0.30;;
12228;SDS011;6177;52.402;9.800;2022-10-16T00:18:14;0.60;;;0.60;;
12228;SDS011;6177;52.402;9.800;2022-10-16T00:21:06;0.73;;;0.57;;
12228;SDS011;6177;52.402;9.800;2022-10-16T00:24:12;0.50;;;0.50;;
12228;SDS011;6177;52.402;9.800;2022-10-16T00:26:57;0.40;;;0.40;;
12228;SDS011;6177;52.402;9.800;2022-10-16T00:29:42;1.80;;;0.50;;
12228;SDS011;6177;52.402;9.800;2022-10-16T00:32:27;2.53;;;0.60;;
12228;SDS011;6177;52.402;9.800;2022-10-16T00:35:11;1.07;;;0.50;;
12228;SDS011;6177;52.402;9.800;2022-10-16T00:37:56;1.43;;;0.40;;
12228;SDS011;6177;52.402;9.800;2022-10-16T00:40:41;2.67;;;0.50;;
12228;SDS011;6177;52.402;9.800;2022-10-16T00:43:36;0.63;;;0.50;;
12228;SDS011;6177;52.402;9.800;2022-10-16T00:49:19;1.07;;;0.50;;
12228;SDS011;6177;52.402;9.800;2022-10-16T00:52:05;0.43;;;0.43;;
12228;SDS011;6177;52.402;9.800;2022-10-16T00:54:49;0.80;;;0.50;;
12228;SDS011;6177;52.402;9.800;2022-10-16T00:57:36;0.30;;;0.30;;
12228;SDS011;6177;52.402;9.800;2022-10-16T01:00:23;0.77;;;0.40;;
12228;SDS011;6177;52.402;9.800;2022-10-16T01:06:36;1.43;;;0.40;;
12228;SDS011;6177;52.402;9.800;2022-10-16T01:09:44;0.40;;;0.40;;
12228;SDS011;6177;52.402;9.800;2022-10-16T01:18:30;0.67;;;0.60;;
12228;SDS011;6177;52.402;9.800;2022-10-16T01:22:05;0.30;;;0.30;;
12228;SDS011;6177;52.402;9.800;2022-10-16T01:24:38;1.60;;;0.60;;
12228;SDS011;6177;52.402;9.800;2022-10-16T01:27:27;2.13;;;0.70;;
12228;SDS011;6177;52.402;9.800;2022-10-16T01:30:23;0.90;;;0.90;;
12228;SDS011;6177;52.402;9.800;2022-10-16T01:33:21;1.20;;;0.63;;
12228;SDS011;6177;52.402;9.800;2022-10-16T01:36:18;1.40;;;0.80;;
12228;SDS011;6177;52.402;9.800;2022-10-16T01:39:09;0.73;;;0.73;;
12228;SDS011;6177;52.402;9.800;2022-10-16T01:41:56;0.93;;;0.80;;
12228;SDS011;6177;52.402;9.800;2022-10-16T01:44:52;2.20;;;0.90;;
12228;SDS011;6177;52.402;9.800;2022-10-16T01:47:38;1.07;;;1.07;;
12228;SDS011;6177;52.402;9.800;2022-10-16T01:50:24;2.73;;;1.10;;
12228;SDS011;6177;52.402;9.800;2022-10-16T01:53:11;5.60;;;1.10;;
12228;SDS011;6177;52.402;9.800;2022-10-16T01:55:58;0.87;;;0.80;;
12228;SDS011;6177;52.402;9.800;2022-10-16T01:58:47;1.00;;;0.90;;
12228;SDS011;6177;52.402;9.800;2022-10-16T02:01:38;1.50;;;1.00;;
12228;SDS011;6177;52.402;9.800;2022-10-16T02:04:30;1.17;;;1.17;;
12228;SDS011;6177;52.402;9.800;2022-10-16T02:07:35;3.73;;;1.20;;
12228;SDS011;6177;52.402;9.800;2022-10-16T02:10:20;7.20;;;1.30;;
12228;SDS011;6177;52.402;9.800;2022-10-16T02:13:13;1.90;;;1.00;;
12228;SDS011;6177;52.402;9.800;2022-10-16T02:16:03;2.23;;;1.00;;
12228;SDS011;6177;52.402;9.800;2022-10-16T02:18:48;1.00;;;1.00;;
12228;SDS011;6177;52.402;9.800;2022-10-16T02:21:35;3.40;;;1.27;;
12228;SDS011;6177;52.402;9.800;2022-10-16T02:24:32;1.53;;;1.27;;
12228;SDS011;6177;52.402;9.800;2022-10-16T02:30:24;4.17;;;1.37;;
12228;SDS011;6177;52.402;9.800;2022-10-16T02:33:14;1.33;;;1.10;;
12228;SDS011;6177;52.402;9.800;2022-10-16T02:36:01;1.23;;;1.17;;
12228;SDS011;6177;52.402;9.800;2022-10-16T02:38:46;1.50;;;1.40;;
12228;SDS011;6177;52.402;9.800;2022-10-16T02:41:31;2.30;;;1.40;;
12228;SDS011;6177;52.402;9.800;2022-10-16T02:44:16;1.50;;;1.40;;
12228;SDS011;6177;52.402;9.800;2022-10-16T02:47:01;2.23;;;1.60;;
12228;SDS011;6177;52.402;9.800;2022-10-16T02:49:46;1.27;;;1.20;;
12228;SDS011;6177;52.402;9.800;2022-10-16T02:52:30;2.97;;;1.70;;
12228;SDS011;6177;52.402;9.800;2022-10-16T02:55:15;1.33;;;1.33;;
12228;SDS011;6177;52.402;9.800;2022-10-16T02:58:00;2.90;;;1.47;;
12228;SDS011;6177;52.402;9.800;2022-10-16T03:00:44;1.20;;;1.10;;
12228;SDS011;6177;52.402;9.800;2022-10-16T03:03:30;1.53;;;1.37;;
12228;SDS011;6177;52.402;9.800;2022-10-16T03:06:14;5.20;;;1.80;;
12228;SDS011;6177;52.402;9.800;2022-10-16T03:08:59;1.77;;;1.67;;
12228;SDS011;6177;52.402;9.800;2022-10-16T03:11:44;1.87;;;1.63;;
12228;SDS011;6177;52.402;9.800;2022-10-16T03:14:29;1.90;;;1.53;;
12228;SDS011;6177;52.402;9.800;2022-10-16T03:17:13;2.13;;;1.50;;
12228;SDS011;6177;52.402;9.800;2022-10-16T03:20:00;1.60;;;1.50;;
12228;SDS011;6177;52.402;9.800;2022-10-16T03:22:45;2.80;;;1.70;;
12228;SDS011;6177;52.402;9.800;2022-10-16T03:25:30;2.00;;;1.60;;
12228;SDS011;6177;52.402;9.800;2022-10-16T03:28:14;2.10;;;1.90;;
12228;SDS011;6177;52.402;9.800;2022-10-16T03:30:59;3.17;;;1.87;;
12228;SDS011;6177;52.402;9.800;2022-10-16T03:33:44;3.37;;;1.80;;
12228;SDS011;6177;52.402;9.800;2022-10-16T03:36:28;4.23;;;1.90;;
12228;SDS011;6177;52.402;9.800;2022-10-16T03:39:13;1.77;;;1.50;;
12228;SDS011;6177;52.402;9.800;2022-10-16T03:41:58;2.13;;;1.77;;
12228;SDS011;6177;52.402;9.800;2022-10-16T03:44:42;1.60;;;1.60;;
12228;SDS011;6177;52.402;9.800;2022-10-16T03:47:27;1.87;;;1.50;;
12228;SDS011;6177;52.402;9.800;2022-10-16T03:50:12;1.23;;;1.20;;
12228;SDS011;6177;52.402;9.800;2022-10-16T03:52:56;3.80;;;1.37;;
12228;SDS011;6177;52.402;9.800;2022-10-16T03:55:41;2.20;;;1.47;;
12228;SDS011;6177;52.402;9.800;2022-10-16T03:58:26;1.80;;;1.40;;
12228;SDS011;6177;52.402;9.800;2022-10-16T04:01:11;2.97;;;1.50;;
12228;SDS011;6177;52.402;9.800;2022-10-16T04:03:55;1.70;;;1.60;;
12228;SDS011;6177;52.402;9.800;2022-10-16T04:06:40;2.07;;;1.90;;
12228;SDS011;6177;52.402;9.800;2022-10-16T04:09:25;7.00;;;1.77;;
12228;SDS011;6177;52.402;9.800;2022-10-16T04:12:09;1.83;;;1.73;;
12228;SDS011;6177;52.402;9.800;2022-10-16T04:14:54;4.83;;;1.70;;
12228;SDS011;6177;52.402;9.800;2022-10-16T04:17:38;1.53;;;1.43;;
12228;SDS011;6177;52.402;9.800;2022-10-16T04:20:23;2.30;;;1.50;;
12228;SDS011;6177;52.402;9.800;2022-10-16T04:23:08;2.67;;;1.40;;
12228;SDS011;6177;52.402;9.800;2022-10-16T04:25:52;2.03;;;1.77;;
12228;SDS011;6177;52.402;9.800;2022-10-16T04:28:37;2.47;;;1.73;;
12228;SDS011;6177;52.402;9.800;2022-10-16T04:31:22;2.60;;;2.40;;
12228;SDS011;6177;52.402;9.800;2022-10-16T04:34:06;3.17;;;2.17;;
12228;SDS011;6177;52.402;9.800;2022-10-16T04:36:51;2.00;;;1.90;;
12228;SDS011;6177;52.402;9.800;2022-10-16T04:39:36;8.73;;;2.03;;
12228;SDS011;6177;52.402;9.800;2022-10-16T04:42:20;2.33;;;2.20;;
12228;SDS011;6177;52.402;9.800;2022-10-16T04:45:05;2.40;;;2.20;;
12228;SDS011;6177;52.402;9.800;2022-10-16T04:47:51;2.57;;;2.37;;
12228;SDS011;6177;52.402;9.800;2022-10-16T04:50:36;2.60;;;2.40;;
12228;SDS011;6177;52.402;9.800;2022-10-16T04:53:23;2.43;;;2.23;;
12228;SDS011;6177;52.402;9.800;2022-10-16T04:56:08;3.70;;;2.30;;
12228;SDS011;6177;52.402;9.800;2022-10-16T04:58:52;3.23;;;2.47;;
12228;SDS011;6177;52.402;9.800;2022-10-16T05:01:37;3.43;;;2.73;;
12228;SDS011;6177;52.402;9.800;2022-10-16T05:04:22;2.83;;;2.60;;
12228;SDS011;6177;52.402;9.800;2022-10-16T05:07:07;2.47;;;2.30;;
12228;SDS011;6177;52.402;9.800;2022-10-16T05:09:52;2.93;;;2.60;;
12228;SDS011;6177;52.402;9.800;2022-10-16T05:12:37;2.63;;;2.20;;
12228;SDS011;6177;52.402;9.800;2022-10-16T05:15:22;3.70;;;2.40;;
12228;SDS011;6177;52.402;9.800;2022-10-16T05:18:09;3.03;;;2.40;;
12228;SDS011;6177;52.402;9.800;2022-10-16T05:20:53;3.30;;;2.40;;
12228;SDS011;6177;52.402;9.800;2022-10-16T05:23:38;2.97;;;2.77;;
12228;SDS011;6177;52.402;9.800;2022-10-16T05:26:23;3.47;;;2.43;;
12228;SDS011;6177;52.402;9.800;2022-10-16T05:29:07;3.10;;;2.90;;
12228;SDS011;6177;52.402;9.800;2022-10-16T05:31:53;2.73;;;2.63;;
12228;SDS011;6177;52.402;9.800;2022-10-16T05:34:38;2.60;;;2.40;;
12228;SDS011;6177;52.402;9.800;2022-10-16T05:37:22;4.10;;;2.70;;
12228;SDS011;6177;52.402;9.800;2022-10-16T05:40:07;4.87;;;2.60;;
12228;SDS011;6177;52.402;9.800;2022-10-16T05:42:54;2.87;;;2.67;;
12228;SDS011;6177;52.402;9.800;2022-10-16T05:45:39;3.10;;;2.73;;
12228;SDS011;6177;52.402;9.800;2022-10-16T05:48:24;3.00;;;2.80;;
12228;SDS011;6177;52.402;9.800;2022-10-16T05:51:09;2.43;;;2.33;;
12228;SDS011;6177;52.402;9.800;2022-10-16T05:53:56;2.60;;;2.50;;
12228;SDS011;6177;52.402;9.800;2022-10-16T05:56:41;3.17;;;2.50;;
12228;SDS011;6177;52.402;9.800;2022-10-16T05:59:26;2.97;;;2.70;;
12228;SDS011;6177;52.402;9.800;2022-10-16T06:02:14;2.93;;;2.83;;
12228;SDS011;6177;52.402;9.800;2022-10-16T06:05:00;3.47;;;3.27;;
12228;SDS011;6177;52.402;9.800;2022-10-16T06:07:44;2.77;;;2.50;;
12228;SDS011;6177;52.402;9.800;2022-10-16T06:10:29;2.57;;;2.43;;
12228;SDS011;6177;52.402;9.800;2022-10-16T06:13:14;2.67;;;2.57;;
12228;SDS011;6177;52.402;9.800;2022-10-16T06:15:59;2.73;;;2.63;;
12228;SDS011;6177;52.402;9.800;2022-10-16T06:18:45;2.70;;;2.60;;
12228;SDS011;6177;52.402;9.800;2022-10-16T06:21:30;3.03;;;2.43;;
12228;SDS011;6177;52.402;9.800;2022-10-16T06:24:15;2.93;;;2.63;;
12228;SDS011;6177;52.402;9.800;2022-10-16T06:27:00;2.23;;;2.10;;
12228;SDS011;6177;52.402;9.800;2022-10-16T06:29:44;3.03;;;2.33;;
12228;SDS011;6177;52.402;9.800;2022-10-16T06:32:29;1.87;;;1.87;;
12228;SDS011;6177;52.402;9.800;2022-10-16T06:35:13;2.57;;;2.47;;
12228;SDS011;6177;52.402;9.800;2022-10-16T06:37:58;4.47;;;2.70;;
12228;SDS011;6177;52.402;9.800;2022-10-16T06:40:43;2.10;;;2.00;;
12228;SDS011;6177;52.402;9.800;2022-10-16T06:43:30;6.43;;;2.47;;
12228;SDS011;6177;52.402;9.800;2022-10-16T06:46:17;2.23;;;1.60;;
12228;SDS011;6177;52.402;9.800;2022-10-16T06:49:05;1.70;;;1.70;;
12228;SDS011;6177;52.402;9.800;2022-10-16T06:51:50;2.00;;;1.90;;
12228;SDS011;6177;52.402;9.800;2022-10-16T06:54:34;2.13;;;1.90;;
12228;SDS011;6177;52.402;9.800;2022-10-16T06:57:19;2.07;;;1.80;;
12228;SDS011;6177;52.402;9.800;2022-10-16T07:00:04;4.00;;;1.90;;
12228;SDS011;6177;52.402;9.800;2022-10-16T07:02:49;6.17;;;1.83;;
12228;SDS011;6177;52.402;9.800;2022-10-16T07:05:37;3.03;;;1.90;;
12228;SDS011;6177;52.402;9.800;2022-10-16T07:08:25;3.63;;;1.60;;
12228;SDS011;6177;52.402;9.800;2022-10-16T07:11:14;1.60;;;1.57;;
12228;SDS011;6177;52.402;9.800;2022-10-16T07:14:00;3.60;;;1.40;;
12228;SDS011;6177;52.402;9.800;2022-10-16T07:16:45;2.47;;;1.20;;
12228;SDS011;6177;52.402;9.800;2022-10-16T07:19:30;1.07;;;1.00;;
12228;SDS011;6177;52.402;9.800;2022-10-16T07:22:14;1.03;;;1.00;;
12228;SDS011;6177;52.402;9.800;2022-10-16T07:24:59;1.23;;;1.07;;
12228;SDS011;6177;52.402;9.800;2022-10-16T07:27:44;1.10;;;1.10;;
12228;SDS011;6177;52.402;9.800;2022-10-16T07:30:28;1.50;;;1.03;;
12228;SDS011;6177;52.402;9.800;2022-10-16T07:33:13;0.80;;;0.80;;
12228;SDS011;6177;52.402;9.800;2022-10-16T07:35:57;1.10;;;1.10;;
12228;SDS011;6177;52.402;9.800;2022-10-16T07:38:42;1.47;;;0.97;;
12228;SDS011;6177;52.402;9.800;2022-10-16T07:41:27;0.97;;;0.87;;
12228;SDS011;6177;52.402;9.800;2022-10-16T07:44:12;1.70;;;1.00;;
12228;SDS011;6177;52.402;9.800;2022-10-16T07:46:56;1.47;;;1.00;;
12228;SDS011;6177;52.402;9.800;2022-10-16T07:49:41;2.70;;;0.90;;
12228;SDS011;6177;52.402;9.800;2022-10-16T07:52:26;1.00;;;1.00;;
12228;SDS011;6177;52.402;9.800;2022-10-16T07:55:11;1.67;;;0.63;;
12228;SDS011;6177;52.402;9.800;2022-10-16T07:57:55;1.50;;;0.57;;
12228;SDS011;6177;52.402;9.800;2022-10-16T08:00:40;0.57;;;0.50;;
12228;SDS011;6177;52.402;9.800;2022-10-16T08:03:25;0.60;;;0.60;;
12228;SDS011;6177;52.402;9.800;2022-10-16T08:06:10;0.40;;;0.40;;
12228;SDS011;6177;52.402;9.800;2022-10-16T08:08:55;0.50;;;0.50;;
12228;SDS011;6177;52.402;9.800;2022-10-16T08:11:40;0.40;;;0.40;;
12228;SDS011;6177;52.402;9.800;2022-10-16T08:14:26;0.77;;;0.37;;
12228;SDS011;6177;52.402;9.800;2022-10-16T08:17:13;0.87;;;0.63;;
12228;SDS011;6177;52.402;9.800;2022-10-16T08:19:58;0.77;;;0.47;;
12228;SDS011;6177;52.402;9.800;2022-10-16T08:22:42;0.90;;;0.50;;
12228;SDS011;6177;52.402;9.800;2022-10-16T08:25:27;0.60;;;0.60;;
12228;SDS011;6177;52.402;9.800;2022-10-16T08:28:12;0.40;;;0.40;;
12228;SDS011;6177;52.402;9.800;2022-10-16T08:31:04;0.87;;;0.53;;
12228;SDS011;6177;52.402;9.800;2022-10-16T08:37:21;2.07;;;0.43;;
12228;SDS011;6177;52.402;9.800;2022-10-16T08:40:27;0.50;;;0.50;;
12228;SDS011;6177;52.402;9.800;2022-10-16T08:43:26;1.47;;;0.70;;
12228;SDS011;6177;52.402;9.800;2022-10-16T08:50:14;0.50;;;0.50;;
12228;SDS011;6177;52.402;9.800;2022-10-16T08:53:35;0.40;;;0.40;;
12228;SDS011;6177;52.402;9.800;2022-10-16T08:56:35;1.30;;;0.30;;
12228;SDS011;6177;52.402;9.800;2022-10-16T08:59:34;0.93;;;0.40;;
12228;SDS011;6177;52.402;9.800;2022-10-16T09:18:51;1.13;;;0.50;;
12228;SDS011;6177;52.402;9.800;2022-10-16T09:22:26;1.73;;;0.40;;
12228;SDS011;6177;52.402;9.800;2022-10-16T09:25:33;1.53;;;0.40;;
12228;SDS011;6177;52.402;9.800;2022-10-16T09:28:42;1.03;;;0.50;;
12228;SDS011;6177;52.402;9.800;2022-10-16T09:31:33;0.80;;;0.40;;
12228;SDS011;6177;52.402;9.800;2022-10-16T09:34:47;1.23;;;0.50;;
12228;SDS011;6177;52.402;9.800;2022-10-16T09:37:49;0.40;;;0.40;;
12228;SDS011;6177;52.402;9.800;2022-10-16T09:40:46;1.27;;;0.50;;
12228;SDS011;6177;52.402;9.800;2022-10-16T09:43:45;1.55;;;0.30;;
12228;SDS011;6177;52.402;9.800;2022-10-16T09:47:02;0.83;;;0.83;;
12228;SDS011;6177;52.402;9.800;2022-10-16T09:50:22;0.60;;;0.40;;
12228;SDS011;6177;52.402;9.800;2022-10-16T09:53:12;0.87;;;0.60;;
12228;SDS011;6177;52.402;9.800;2022-10-16T09:56:04;0.50;;;0.50;;
12228;SDS011;6177;52.402;9.800;2022-10-16T09:59:00;0.40;;;0.40;;
12228;SDS011;6177;52.402;9.800;2022-10-16T10:02:03;0.90;;;0.50;;
12228;SDS011;6177;52.402;9.800;2022-10-16T10:05:03;1.33;;;0.40;;
12228;SDS011;6177;52.402;9.800;2022-10-16T10:08:21;1.45;;;0.40;;
12228;SDS011;6177;52.402;9.800;2022-10-16T10:11:12;2.50;;;0.60;;
12228;SDS011;6177;52.402;9.800;2022-10-16T10:14:03;0.60;;;0.45;;
12228;SDS011;6177;52.402;9.800;2022-10-16T10:17:09;0.30;;;0.30;;
12228;SDS011;6177;52.402;9.800;2022-10-16T10:20:18;0.75;;;0.40;;
12228;SDS011;6177;52.402;9.800;2022-10-16T10:23:24;0.30;;;0.30;;
12228;SDS011;6177;52.402;9.800;2022-10-16T10:26:28;1.08;;;0.32;;
12228;SDS011;6177;52.402;9.800;2022-10-16T10:32:27;0.73;;;0.73;;
12228;SDS011;6177;52.402;9.800;2022-10-16T10:54:38;0.43;;;0.23;;
12228;SDS011;6177;52.402;9.800;2022-10-16T11:03:58;1.17;;;0.43;;
12228;SDS011;6177;52.402;9.800;2022-10-16T11:06:54;0.95;;;0.43;;
12228;SDS011;6177;52.402;9.800;2022-10-16T11:09:47;1.10;;;0.45;;
12228;SDS011;6177;52.402;9.800;2022-10-16T11:12:40;1.35;;;0.60;;
12228;SDS011;6177;52.402;9.800;2022-10-16T11:15:31;1.00;;;0.47;;
12228;SDS011;6177;52.402;9.800;2022-10-16T11:18:21;0.43;;;0.43;;
12228;SDS011;6177;52.402;9.800;2022-10-16T11:21:23;1.17;;;0.50;;
12228;SDS011;6177;52.402;9.800;2022-10-16T11:27:17;2.13;;;0.50;;
12228;SDS011;6177;52.402;9.800;2022-10-16T11:30:14;0.40;;;0.40;;
12228;SDS011;6177;52.402;9.800;2022-10-16T11:36:25;0.32;;;0.30;;
12228;SDS011;6177;52.402;9.800;2022-10-16T11:39:36;2.38;;;0.55;;
12228;SDS011;6177;52.402;9.800;2022-10-16T11:42:30;1.08;;;0.50;;
12228;SDS011;6177;52.402;9.800;2022-10-16T11:45:41;0.70;;;0.30;;
12228;SDS011;6177;52.402;9.800;2022-10-16T11:48:50;0.30;;;0.30;;
12228;SDS011;6177;52.402;9.800;2022-10-16T11:57:51;1.00;;;0.50;;
12228;SDS011;6177;52.402;9.800;2022-10-16T12:03:48;2.25;;;0.50;;
12228;SDS011;6177;52.402;9.800;2022-10-16T12:06:50;0.50;;;0.50;;
12228;SDS011;6177;52.402;9.800;2022-10-16T12:09:50;0.47;;;0.47;;
12228;SDS011;6177;52.402;9.800;2022-10-16T12:12:42;1.40;;;0.30;;
12228;SDS011;6177;52.402;9.800;2022-10-16T12:15:33;1.45;;;0.30;;
12228;SDS011;6177;52.402;9.800;2022-10-16T12:18:38;0.30;;;0.20;;
12228;SDS011;6177;52.402;9.800;2022-10-16T12:21:30;3.90;;;0.30;;
12228;SDS011;6177;52.402;9.800;2022-10-16T12:24:32;1.45;;;0.55;;
12228;SDS011;6177;52.402;9.800;2022-10-16T12:27:30;2.38;;;0.40;;
12228;SDS011;6177;52.402;9.800;2022-10-16T12:30:20;0.43;;;0.30;;
12228;SDS011;6177;52.402;9.800;2022-10-16T12:33:26;0.35;;;0.25;;
12228;SDS011;6177;52.402;9.800;2022-10-16T12:36:38;0.47;;;0.47;;
12228;SDS011;6177;52.402;9.800;2022-10-16T12:39:37;0.32;;;0.30;;
12228;SDS011;6177;52.402;9.800;2022-10-16T12:42:53;0.40;;;0.30;;
12228;SDS011;6177;52.402;9.800;2022-10-16T12:45:58;0.85;;;0.40;;
12228;SDS011;6177;52.402;9.800;2022-10-16T12:49:28;1.60;;;0.43;;
12228;SDS011;6177;52.402;9.800;2022-10-16T12:52:38;0.70;;;0.55;;
12228;SDS011;6177;52.402;9.800;2022-10-16T12:55:27;0.80;;;0.30;;
12228;SDS011;6177;52.402;9.800;2022-10-16T13:23:23;1.13;;;0.50;;
12228;SDS011;6177;52.402;9.800;2022-10-16T13:26:17;0.52;;;0.32;;
12228;SDS011;6177;52.402;9.800;2022-10-16T13:29:17;1.15;;;0.40;;
12228;SDS011;6177;52.402;9.800;2022-10-16T13:32:09;0.82;;;0.60;;
12228;SDS011;6177;52.402;9.800;2022-10-16T13:34:58;0.43;;;0.43;;
12228;SDS011;6177;52.402;9.800;2022-10-16T13:37:47;1.92;;;0.40;;
12228;SDS011;6177;52.402;9.800;2022-10-16T13:40:34;0.90;;;0.47;;
12228;SDS011;6177;52.402;9.800;2022-10-16T13:43:19;0.22;;;0.20;;
12228;SDS011;6177;52.402;9.800;2022-10-16T13:46:23;0.20;;;0.20;;
12228;SDS011;6177;52.402;9.800;2022-10-16T13:49:17;0.52;;;0.30;;
12228;SDS011;6177;52.402;9.800;2022-10-16T13:52:04;0.40;;;0.38;;
12228;SDS011;6177;52.402;9.800;2022-10-16T13:54:48;1.08;;;0.40;;
12228;SDS011;6177;52.402;9.800;2022-10-16T13:57:33;1.73;;;0.50;;
12228;SDS011;6177;52.402;9.800;2022-10-16T14:03:05;0.30;;;0.30;;
12228;SDS011;6177;52.402;9.800;2022-10-16T14:05:57;0.35;;;0.35;;
12228;SDS011;6177;52.402;9.800;2022-10-16T14:08:45;2.22;;;0.50;;
12228;SDS011;6177;52.402;9.800;2022-10-16T14:11:42;0.20;;;0.20;;
12228;SDS011;6177;52.402;9.800;2022-10-16T14:14:34;0.20;;;0.20;;
12228;SDS011;6177;52.402;9.800;2022-10-16T14:17:26;0.55;;;0.20;;
12228;SDS011;6177;52.402;9.800;2022-10-16T14:20:13;2.60;;;0.30;;
12228;SDS011;6177;52.402;9.800;2022-10-16T14:23:04;0.88;;;0.35;;
12228;SDS011;6177;52.402;9.800;2022-10-16T14:32:20;0.30;;;0.30;;
12228;SDS011;6177;52.402;9.800;2022-10-16T14:35:23;0.75;;;0.43;;
12228;SDS011;6177;52.402;9.800;2022-10-16T14:38:18;1.30;;;0.40;;
12228;SDS011;6177;52.402;9.800;2022-10-16T14:41:04;1.02;;;0.40;;
12228;SDS011;6177;52.402;9.800;2022-10-16T14:43:50;1.00;;;0.40;;
12228;SDS011;6177;52.402;9.800;2022-10-16T14:46:38;0.93;;;0.60;;
12228;SDS011;6177;52.402;9.800;2022-10-16T14:49:25;2.30;;;0.20;;
12228;SDS011;6177;52.402;9.800;2022-10-16T14:52:14;0.47;;;0.45;;
12228;SDS011;6177;52.402;9.800;2022-10-16T14:54:58;0.82;;;0.45;;
12228;SDS011;6177;52.402;9.800;2022-10-16T14:57:43;1.33;;;0.40;;
12228;SDS011;6177;52.402;9.800;2022-10-16T15:00:31;1.02;;;0.32;;
12228;SDS011;6177;52.402;9.800;2022-10-16T15:03:17;0.45;;;0.35;;
12228;SDS011;6177;52.402;9.800;2022-10-16T15:06:13;0.70;;;0.30;;
12228;SDS011;6177;52.402;9.800;2022-10-16T15:09:01;1.45;;;0.40;;
12228;SDS011;6177;52.402;9.800;2022-10-16T15:11:46;0.50;;;0.50;;
12228;SDS011;6177;52.402;9.800;2022-10-16T15:14:32;0.82;;;0.30;;
12228;SDS011;6177;52.402;9.800;2022-10-16T15:17:17;0.82;;;0.57;;
12228;SDS011;6177;52.402;9.800;2022-10-16T15:20:02;0.85;;;0.40;;
12228;SDS011;6177;52.402;9.800;2022-10-16T15:22:50;0.73;;;0.40;;
12228;SDS011;6177;52.402;9.800;2022-10-16T15:25:40;0.38;;;0.30;;
12228;SDS011;6177;52.402;9.800;2022-10-16T15:28:26;0.38;;;0.32;;
12228;SDS011;6177;52.402;9.800;2022-10-16T15:31:11;0.98;;;0.60;;
12228;SDS011;6177;52.402;9.800;2022-10-16T15:33:56;0.65;;;0.50;;
12228;SDS011;6177;52.402;9.800;2022-10-16T15:36:48;0.60;;;0.60;;
12228;SDS011;6177;52.402;9.800;2022-10-16T15:39:33;0.73;;;0.47;;
12228;SDS011;6177;52.402;9.800;2022-10-16T15:42:18;1.95;;;0.50;;
12228;SDS011;6177;52.402;9.800;2022-10-16T15:45:02;0.47;;;0.47;;
12228;SDS011;6177;52.402;9.800;2022-10-16T15:47:48;1.83;;;0.40;;
12228;SDS011;6177;52.402;9.800;2022-10-16T15:50:33;1.05;;;0.50;;
12228;SDS011;6177;52.402;9.800;2022-10-16T15:53:18;0.32;;;0.32;;
12228;SDS011;6177;52.402;9.800;2022-10-16T15:56:06;0.88;;;0.40;;
12228;SDS011;6177;52.402;9.800;2022-10-16T15:58:52;0.65;;;0.50;;
12228;SDS011;6177;52.402;9.800;2022-10-16T16:01:38;2.53;;;0.73;;
12228;SDS011;6177;52.402;9.800;2022-10-16T16:04:23;0.70;;;0.70;;
12228;SDS011;6177;52.402;9.800;2022-10-16T16:07:08;1.55;;;0.82;;
12228;SDS011;6177;52.402;9.800;2022-10-16T16:09:53;2.00;;;1.08;;
12228;SDS011;6177;52.402;9.800;2022-10-16T16:12:38;1.00;;;0.73;;
12228;SDS011;6177;52.402;9.800;2022-10-16T16:15:24;1.30;;;0.52;;
12228;SDS011;6177;52.402;9.800;2022-10-16T16:18:08;1.90;;;0.50;;
12228;SDS011;6177;52.402;9.800;2022-10-16T16:20:53;0.68;;;0.68;;
12228;SDS011;6177;52.402;9.800;2022-10-16T16:23:38;1.98;;;0.73;;
12228;SDS011;6177;52.402;9.800;2022-10-16T16:29:14;1.20;;;1.10;;
12228;SDS011;6177;52.402;9.800;2022-10-16T16:32:00;1.02;;;0.93;;
12228;SDS011;6177;52.402;9.800;2022-10-16T16:34:44;0.88;;;0.88;;
12228;SDS011;6177;52.402;9.800;2022-10-16T16:37:29;2.03;;;1.20;;
12228;SDS011;6177;52.402;9.800;2022-10-16T16:40:15;2.05;;;1.40;;
12228;SDS011;6177;52.402;9.800;2022-10-16T16:43:01;1.60;;;1.50;;
12228;SDS011;6177;52.402;9.800;2022-10-16T16:45:47;1.65;;;1.15;;
12228;SDS011;6177;52.402;9.800;2022-10-16T16:48:32;1.63;;;1.38;;
12228;SDS011;6177;52.402;9.800;2022-10-16T16:51:17;1.45;;;1.35;;
12228;SDS011;6177;52.402;9.800;2022-10-16T16:54:03;1.02;;;1.02;;
12228;SDS011;6177;52.402;9.800;2022-10-16T16:56:48;1.55;;;1.40;;
12228;SDS011;6177;52.402;9.800;2022-10-16T16:59:33;1.35;;;1.27;;
12228;SDS011;6177;52.402;9.800;2022-10-16T17:02:18;1.30;;;1.20;;
12228;SDS011;6177;52.402;9.800;2022-10-16T17:05:02;1.08;;;1.08;;
12228;SDS011;6177;52.402;9.800;2022-10-16T17:07:47;1.73;;;1.35;;
12228;SDS011;6177;52.402;9.800;2022-10-16T17:10:32;2.08;;;0.93;;
12228;SDS011;6177;52.402;9.800;2022-10-16T17:13:17;1.42;;;1.10;;
12228;SDS011;6177;52.402;9.800;2022-10-16T17:16:02;1.48;;;1.13;;
12228;SDS011;6177;52.402;9.800;2022-10-16T17:18:48;1.43;;;1.33;;
12228;SDS011;6177;52.402;9.800;2022-10-16T17:21:33;2.42;;;2.00;;
12228;SDS011;6177;52.402;9.800;2022-10-16T17:24:18;3.47;;;3.17;;
12228;SDS011;6177;52.402;9.800;2022-10-16T17:27:04;3.80;;;3.60;;
12228;SDS011;6177;52.402;9.800;2022-10-16T17:29:51;7.93;;;6.55;;
12228;SDS011;6177;52.402;9.800;2022-10-16T17:32:36;7.32;;;6.72;;
12228;SDS011;6177;52.402;9.800;2022-10-16T17:35:21;7.25;;;6.50;;
12228;SDS011;6177;52.402;9.800;2022-10-16T17:38:06;5.45;;;5.07;;
12228;SDS011;6177;52.402;9.800;2022-10-16T17:40:50;4.73;;;4.00;;
12228;SDS011;6177;52.402;9.800;2022-10-16T17:43:36;5.53;;;5.05;;
12228;SDS011;6177;52.402;9.800;2022-10-16T17:46:21;4.97;;;3.83;;
12228;SDS011;6177;52.402;9.800;2022-10-16T17:49:06;4.57;;;4.03;;
12228;SDS011;6177;52.402;9.800;2022-10-16T17:51:53;4.47;;;4.07;;
12228;SDS011;6177;52.402;9.800;2022-10-16T17:54:38;3.92;;;3.63;;
12228;SDS011;6177;52.402;9.800;2022-10-16T17:57:24;3.70;;;3.50;;
12228;SDS011;6177;52.402;9.800;2022-10-16T18:00:09;5.03;;;3.70;;
12228;SDS011;6177;52.402;9.800;2022-10-16T18:02:55;3.70;;;2.90;;
12228;SDS011;6177;52.402;9.800;2022-10-16T18:05:40;2.95;;;2.75;;
12228;SDS011;6177;52.402;9.800;2022-10-16T18:08:25;3.92;;;3.10;;
12228;SDS011;6177;52.402;9.800;2022-10-16T18:11:10;3.67;;;3.38;;
12228;SDS011;6177;52.402;9.800;2022-10-16T18:13:55;3.75;;;3.28;;
12228;SDS011;6177;52.402;9.800;2022-10-16T18:16:40;3.92;;;3.15;;
12228;SDS011;6177;52.402;9.800;2022-10-16T18:19:25;4.43;;;3.72;;
12228;SDS011;6177;52.402;9.800;2022-10-16T18:22:10;5.40;;;3.58;;
12228;SDS011;6177;52.402;9.800;2022-10-16T18:24:54;4.47;;;3.33;;
12228;SDS011;6177;52.402;9.800;2022-10-16T18:27:41;4.57;;;3.38;;
12228;SDS011;6177;52.402;9.800;2022-10-16T18:30:26;3.95;;;3.67;;
12228;SDS011;6177;52.402;9.800;2022-10-16T18:33:11;5.18;;;3.83;;
12228;SDS011;6177;52.402;9.800;2022-10-16T18:36:28;6.40;;;5.00;;
12228;SDS011;6177;52.402;9.800;2022-10-16T18:39:24;5.55;;;4.97;;
12228;SDS011;6177;52.402;9.800;2022-10-16T18:42:11;5.78;;;5.13;;
12228;SDS011;6177;52.402;9.800;2022-10-16T18:44:56;5.13;;;4.78;;
12228;SDS011;6177;52.402;9.800;2022-10-16T18:47:41;5.75;;;5.15;;
12228;SDS011;6177;52.402;9.800;2022-10-16T18:50:25;8.13;;;5.65;;
12228;SDS011;6177;52.402;9.800;2022-10-16T18:53:11;6.13;;;5.53;;
12228;SDS011;6177;52.402;9.800;2022-10-16T18:55:55;8.43;;;6.17;;
12228;SDS011;6177;52.402;9.800;2022-10-16T18:58:40;7.77;;;6.63;;
12228;SDS011;6177;52.402;9.800;2022-10-16T19:01:27;7.03;;;5.80;;
12228;SDS011;6177;52.402;9.800;2022-10-16T19:04:13;5.97;;;5.37;;
12228;SDS011;6177;52.402;9.800;2022-10-16T19:06:59;6.67;;;6.10;;
12228;SDS011;6177;52.402;9.800;2022-10-16T19:09:44;8.90;;;7.83;;
12228;SDS011;6177;52.402;9.800;2022-10-16T19:12:29;9.60;;;8.77;;
12228;SDS011;6177;52.402;9.800;2022-10-16T19:15:14;8.87;;;8.07;;